Portada
METAR-TAF:

METAR-TAF

Aeroports :

Makassar, South Sulawesi, Indonèsia

latitud: 05-04S, longitud: 119-33E, altitud: 14 m

Observació

L'informe es va fer fa 1 hora i 5 minuts, a les 10:00 UTC
Vent 5 kt del Sud-Est
Temperatura 28°C
Humitat 84%
Pressió 1008 hPa
Visibilitat: 9000 m
Escasses núvols a una alçada de 2000 ft

METAR: WAAA 071000Z 13005KT 9000 FEW020 28/25 Q1008 NOSIG

Hora: 18:05 (11:05 UTC)

Pronòstic

L'informe es va fer fa 6 hores i 5 minuts, a les 05:00 UTC
Pronòstic vàlid del 07 a les 06 UTC al 08 a les 12 UTC
Vent 10 kt del Oest/Nord-Oest
Visibilitat 10 km o més
Núvols disperses a una alçada de 1900 ft
Temporalment
l' 07 a les 07 UTC al 07 a les 10 UTC
Visibilitat: 6000 m
Escasses núvols a una alçada de 1800 ft, Cumulonimbus.
tempesta, pluja
Evolucionant progressivament
l' 07 a les 10 UTC al 07 a les 12 UTC
Vent 4 kt del Est

TAF: WAAA 070500Z 0706/0812 29010KT 9999 SCT019 TEMPO 0707/0710 6000 -TSRA FEW018CB BECMG 0710/0712 10004KT

Observacions i pronòstics meteorològics de més de 4000 aeroports (METAR i TAF).

Les estacions disponibles són els punts grocs i vermells al mapa.

Posi el ratolí al punt desitjat per veure el nom de l'estació.

Feu clic per veure les observacions i els pronòstics meteorològics.

Per canviar el mapa: feu clic els botons verds amb una creu de color negre per apropar; al botó verd amb un guió per allunyar la imatge; o en les fletxes verdes per a mapes adjacents.


METAR-TAF: